Time;durP1;ratioP1;P1;durP2;ratioP2;P2;SDS_P1;SDS_P2;PMS_P1;PMS_P2;Temp;Humidity;BMP_temperature;BMP_pressure;BME280_temperature;BME280_humidity;BME280_pressure;Samples;Min_cycle;Max_cycle;Signal;HPM_P1;HPM_P2
2023/09/17 00:01:04;;;;;;;67.55;47.05;;;;;;;-147.65;100.00;57646.63;10460418;28;20049;-79
2023/09/17 00:06:05;;;;;;;58.88;42.85;;;;;;;-147.65;100.00;57646.63;10461674;28;20393;-80
2023/09/17 00:11:06;;;;;;;61.93;44.40;;;;;;;-147.65;100.00;57646.63;10424936;28;20481;-81
2023/09/17 00:16:07;;;;;;;67.00;46.20;;;;;;;-147.65;100.00;57646.63;10421540;28;20041;-80
2023/09/17 00:21:08;;;;;;;69.82;48.22;;;;;;;-147.65;100.00;57646.63;10415103;28;20060;-80
2023/09/17 00:26:08;;;;;;;76.05;54.25;;;;;;;-147.65;100.00;57646.63;10414331;28;20057;-79
2023/09/17 00:31:09;;;;;;;77.38;56.47;;;;;;;-147.65;100.00;57646.63;10425306;28;20496;-79
2023/09/17 00:36:09;;;;;;;66.65;52.83;;;;;;;-147.65;100.00;57646.63;10406678;28;20059;-80
2023/09/17 00:41:10;;;;;;;67.70;56.17;;;;;;;-147.65;100.00;57646.63;10394151;28;20412;-80
2023/09/17 00:46:13;;;;;;;56.78;43.63;;;;;;;-147.65;100.00;57646.63;10425601;28;20056;-80
2023/09/17 00:51:13;;;;;;;70.00;55.80;;;;;;;-147.65;100.00;57646.63;10424013;28;20513;-80
2023/09/17 00:56:14;;;;;;;70.03;56.28;;;;;;;-147.65;100.00;57646.63;10419766;28;20045;-79
2023/09/17 01:01:14;;;;;;;75.22;54.88;;;;;;;-147.65;100.00;57646.63;10397291;28;20053;-80
2023/09/17 01:06:15;;;;;;;85.50;63.00;;;;;;;-147.65;100.00;57646.63;10397852;28;20053;-80
2023/09/17 01:11:15;;;;;;;62.20;52.78;;;;;;;-147.65;100.00;57646.63;10421639;28;20063;-80
2023/09/17 01:16:16;;;;;;;70.65;54.15;;;;;;;-147.65;100.00;57646.63;10417813;28;20105;-80
2023/09/17 01:21:20;;;;;;;86.30;63.53;;;;;;;-147.65;100.00;57646.63;10435012;28;20094;-80
2023/09/17 01:26:27;;;;;;;69.65;54.00;;;;;;;-147.65;100.00;57646.63;10420129;28;20095;-80
2023/09/17 01:31:29;;;;;;;69.03;57.47;;;;;;;-147.65;100.00;57646.63;10435962;28;20425;-81
2023/09/17 01:36:29;;;;;;;71.20;55.83;;;;;;;-147.65;100.00;57646.63;10420977;28;20032;-80
2023/09/17 01:41:30;;;;;;;60.63;46.78;;;;;;;-147.65;100.00;57646.63;10421312;28;20076;-79
2023/09/17 01:46:31;;;;;;;64.95;51.78;;;;;;;-147.65;100.00;57646.63;10434031;28;20498;-78
2023/09/17 01:51:32;;;;;;;53.30;42.87;;;;;;;-147.65;100.00;57646.63;10435349;28;20040;-78
2023/09/17 01:56:37;;;;;;;54.87;44.07;;;;;;;-147.65;100.00;57646.63;10425153;28;20045;-78
2023/09/17 02:01:37;;;;;;;58.30;45.17;;;;;;;-147.65;100.00;57646.63;10422085;28;20485;-77
2023/09/17 02:06:38;;;;;;;58.58;45.70;;;;;;;-147.65;100.00;57646.63;10421396;28;20033;-77
2023/09/17 02:11:39;;;;;;;63.40;46.10;;;;;;;-147.65;100.00;57646.63;10398798;28;20381;-77
2023/09/17 02:16:39;;;;;;;57.97;43.97;;;;;;;-147.65;100.00;57646.63;10424019;28;20397;-77
2023/09/17 02:21:40;;;;;;;62.17;45.25;;;;;;;-147.65;100.00;57646.63;10420072;28;20047;-77
2023/09/17 02:26:41;;;;;;;55.92;41.97;;;;;;;-147.65;100.00;57646.63;10424321;28;20075;-76
2023/09/17 02:31:41;;;;;;;70.28;48.38;;;;;;;-147.65;100.00;57646.63;10429040;28;20047;-78
2023/09/17 02:36:42;;;;;;;55.33;41.03;;;;;;;-147.65;100.00;57646.63;10451406;28;20456;-78
2023/09/17 02:41:42;;;;;;;73.88;50.25;;;;;;;-147.65;100.00;57646.63;10428008;28;20473;-78
2023/09/17 02:46:43;;;;;;;66.78;47.38;;;;;;;-147.65;100.00;57646.63;10426485;28;20047;-78
2023/09/17 02:51:43;;;;;;;72.00;53.53;;;;;;;-147.65;100.00;57646.63;10423541;28;20045;-79
2023/09/17 02:56:44;;;;;;;63.58;45.35;;;;;;;-147.65;100.00;57646.63;10441974;28;20046;-77
2023/09/17 03:01:44;;;;;;;69.00;46.10;;;;;;;-147.65;100.00;57646.63;10431661;28;20044;-77
2023/09/17 03:06:46;;;;;;;64.88;47.33;;;;;;;-147.65;100.00;57646.63;10438066;28;20128;-78
2023/09/17 03:11:47;;;;;;;65.90;43.75;;;;;;;-147.65;100.00;57646.63;10410213;28;20096;-79
2023/09/17 03:16:47;;;;;;;71.32;46.03;;;;;;;-147.65;100.00;57646.63;10448792;28;20044;-80
2023/09/17 03:21:48;;;;;;;65.40;44.45;;;;;;;-147.65;100.00;57646.63;10459068;28;20175;-80
2023/09/17 03:26:49;;;;;;;90.30;50.85;;;;;;;-147.65;100.00;57646.63;10423909;28;20047;-79
2023/09/17 03:31:49;;;;;;;89.30;55.65;;;;;;;-147.65;100.00;57646.63;10421145;28;20156;-80
2023/09/17 03:36:50;;;;;;;97.28;57.75;;;;;;;-147.65;100.00;57646.63;10438149;28;20067;-81
2023/09/17 03:41:51;;;;;;;94.27;58.90;;;;;;;-147.65;100.00;57646.63;10419467;28;20033;-79
2023/09/17 03:46:51;;;;;;;92.78;56.72;;;;;;;-147.65;100.00;57646.63;10426945;28;20130;-79
2023/09/17 03:51:52;;;;;;;96.75;59.63;;;;;;;-147.65;100.00;57646.63;10456511;28;20041;-79
2023/09/17 03:56:52;;;;;;;108.10;66.45;;;;;;;-147.65;100.00;57646.63;10418859;28;20040;-79
2023/09/17 04:01:53;;;;;;;117.32;67.90;;;;;;;-147.65;100.00;57646.63;10420404;28;20048;-79
2023/09/17 04:06:53;;;;;;;116.78;68.40;;;;;;;-147.65;100.00;57646.63;10428540;28;20058;-79
2023/09/17 04:11:54;;;;;;;109.20;66.47;;;;;;;-147.65;100.00;57646.63;10407796;28;20033;-80
2023/09/17 04:16:54;;;;;;;134.48;75.78;;;;;;;-147.65;100.00;57646.63;10422405;28;20162;-79
2023/09/17 04:21:56;;;;;;;144.00;82.05;;;;;;;-147.65;100.00;57646.63;10399120;28;20028;-79
2023/09/17 04:26:56;;;;;;;112.70;70.73;;;;;;;-147.65;100.00;57646.63;10415277;28;20043;-79
2023/09/17 04:31:57;;;;;;;104.18;67.50;;;;;;;-147.65;100.00;57646.63;10421640;28;20040;-79
2023/09/17 04:36:58;;;;;;;129.32;79.72;;;;;;;-147.65;100.00;57646.63;10393238;28;20128;-80
2023/09/17 04:41:59;;;;;;;141.65;83.70;;;;;;;-147.65;100.00;57646.63;10404624;28;20175;-80
2023/09/17 04:47:00;;;;;;;150.63;94.30;;;;;;;-147.65;100.00;57646.63;10418257;28;20493;-80
2023/09/17 04:52:01;;;;;;;148.15;81.75;;;;;;;-147.65;100.00;57646.63;10419466;28;20370;-79
2023/09/17 04:57:01;;;;;;;160.43;94.85;;;;;;;-147.65;100.00;57646.63;10453482;28;20053;-80
2023/09/17 05:02:02;;;;;;;146.98;90.63;;;;;;;-147.65;100.00;57646.63;10436156;28;20515;-80
2023/09/17 05:07:06;;;;;;;159.73;92.38;;;;;;;-147.65;100.00;57646.63;10422606;28;20044;-80
2023/09/17 05:12:08;;;;;;;182.27;99.45;;;;;;;-147.65;100.00;57646.63;10420966;28;20041;-81
2023/09/17 05:17:08;;;;;;;150.18;87.85;;;;;;;-147.65;100.00;57646.63;10452087;28;20397;-81
2023/09/17 05:22:09;;;;;;;143.70;86.13;;;;;;;-147.65;100.00;57646.63;10417326;28;20063;-80
2023/09/17 05:27:09;;;;;;;170.73;97.18;;;;;;;-147.65;100.00;57646.63;10425549;28;20481;-80
2023/09/17 05:32:10;;;;;;;147.07;85.25;;;;;;;-147.65;100.00;57646.63;10454125;28;20048;-81
2023/09/17 05:37:10;;;;;;;145.82;84.28;;;;;;;-147.65;100.00;57646.63;10455052;28;20486;-80
2023/09/17 05:42:11;;;;;;;168.65;85.95;;;;;;;-147.65;100.00;57646.63;10407244;28;20041;-80
2023/09/17 05:47:11;;;;;;;157.25;85.68;;;;;;;-147.65;100.00;57646.63;10424214;28;20409;-81
2023/09/17 05:52:12;;;;;;;163.10;86.57;;;;;;;-147.65;100.00;57646.63;10423596;28;20053;-80
2023/09/17 05:57:12;;;;;;;147.68;73.57;;;;;;;-147.65;100.00;57646.63;10415311;28;20037;-81
2023/09/17 06:02:13;;;;;;;156.45;86.00;;;;;;;-147.65;100.00;57646.63;10435548;28;20037;-79
2023/09/17 06:07:14;;;;;;;155.82;83.18;;;;;;;-147.65;100.00;57646.63;10428627;28;20052;-80
2023/09/17 06:12:15;;;;;;;142.63;79.03;;;;;;;-147.65;100.00;57646.63;10440559;28;20409;-80
2023/09/17 06:17:15;;;;;;;123.43;65.43;;;;;;;-147.65;100.00;57646.63;10472647;28;20277;-80
2023/09/17 06:22:16;;;;;;;181.82;94.15;;;;;;;-147.65;100.00;57646.63;10463181;28;20123;-81
2023/09/17 06:27:16;;;;;;;149.27;80.95;;;;;;;-147.65;100.00;57646.63;10462501;28;20492;-81
2023/09/17 06:32:17;;;;;;;140.35;76.03;;;;;;;-147.65;100.00;57646.63;10447250;28;20124;-81
2023/09/17 06:37:18;;;;;;;151.80;80.55;;;;;;;-147.65;100.00;57646.63;10463617;28;20482;-80
2023/09/17 06:42:19;;;;;;;125.43;72.97;;;;;;;-147.65;100.00;57646.63;10437359;28;20044;-80
2023/09/17 06:47:20;;;;;;;120.75;69.60;;;;;;;-147.65;100.00;57646.63;10438328;28;20121;-79
2023/09/17 06:52:23;;;;;;;116.68;67.93;;;;;;;-147.65;100.00;57646.63;10486693;28;20049;-80
2023/09/17 06:57:24;;;;;;;129.70;74.82;;;;;;;-147.65;100.00;57646.63;10447711;28;20399;-81
2023/09/17 07:02:24;;;;;;;127.78;69.60;;;;;;;-147.65;100.00;57646.63;10481824;28;20047;-80
2023/09/17 07:07:25;;;;;;;99.95;59.22;;;;;;;-147.65;100.00;57646.63;10473008;28;20124;-78
2023/09/17 07:12:25;;;;;;;89.60;55.63;;;;;;;-147.65;100.00;57646.63;10456737;28;20052;-80
2023/09/17 07:17:26;;;;;;;77.80;49.75;;;;;;;-147.65;100.00;57646.63;10491296;28;20037;-79
2023/09/17 07:22:28;;;;;;;67.23;42.47;;;;;;;-147.65;100.00;57646.63;10461392;28;20128;-80
2023/09/17 07:27:29;;;;;;;56.13;37.05;;;;;;;-147.65;100.00;57646.63;10463650;28;20439;-79
2023/09/17 07:32:29;;;;;;;46.80;34.33;;;;;;;-147.65;100.00;57646.63;10425814;28;20091;-81
2023/09/17 07:37:30;;;;;;;37.87;28.57;;;;;;;-147.65;100.00;57646.63;10432483;28;20041;-80
2023/09/17 07:42:31;;;;;;;31.83;22.45;;;;;;;-147.65;100.00;57646.63;10443858;28;20501;-79
2023/09/17 07:47:31;;;;;;;22.37;16.10;;;;;;;-147.65;100.00;57646.63;10438355;28;20559;-79
2023/09/17 07:52:32;;;;;;;22.83;16.93;;;;;;;-147.65;100.00;57646.63;10471271;28;20484;-79
2023/09/17 07:57:33;;;;;;;25.50;16.27;;;;;;;-147.65;100.00;57646.63;10500322;28;20043;-79
2023/09/17 08:02:33;;;;;;;23.57;14.03;;;;;;;-147.65;100.00;57646.63;10479964;28;20028;-79
2023/09/17 08:07:34;;;;;;;15.63;11.67;;;;;;;-147.65;100.00;57646.63;10466995;28;20496;-79
2023/09/17 08:12:35;;;;;;;15.03;12.27;;;;;;;-147.65;100.00;57646.63;10454513;28;20563;-78
2023/09/17 08:17:36;;;;;;;16.77;11.93;;;;;;;-147.65;100.00;57646.63;10397351;28;20056;-78
2023/09/17 08:22:37;;;;;;;17.17;11.70;;;;;;;-147.65;100.00;57646.63;10427971;28;20397;-78
2023/09/17 08:27:39;;;;;;;15.20;11.57;;;;;;;-147.65;100.00;57646.63;10443626;28;20052;-79
2023/09/17 08:32:40;;;;;;;;;;;;;;;-147.65;100.00;57646.63;10442224;28;20428;-79
2023/09/17 08:37:42;;;;;;;13.77;10.20;;;;;;;-147.65;100.00;57646.63;10434827;28;19928;-80
2023/09/17 08:42:42;;;;;;;13.23;9.57;;;;;;;-147.65;100.00;57646.63;10452227;28;21671;-79
2023/09/17 08:47:43;;;;;;;17.07;10.03;;;;;;;-147.65;100.00;57646.63;10457261;28;20041;-79
2023/09/17 08:52:44;;;;;;;13.90;9.10;;;;;;;-147.65;100.00;57646.63;10441112;28;20063;-78
2023/09/17 08:57:46;;;;;;;;;;;;;;;-147.65;100.00;57646.63;10450969;28;20037;-78
2023/09/17 09:02:54;;;;;;;10.70;9.05;;;;;;;-147.65;100.00;57646.63;10457405;28;19921;-77
2023/09/17 09:07:56;;;;;;;12.25;8.50;;;;;;;-147.65;100.00;57646.63;10435798;28;20033;-78
2023/09/17 09:12:56;;;;;;;;;;;;;;;-147.65;100.00;57646.63;10414428;28;20037;-79
2023/09/17 09:17:57;;;;;;;10.93;6.00;;;;;;;-147.65;100.00;57646.63;10465629;28;19967;-78
2023/09/17 09:22:58;;;;;;;10.60;6.80;;;;;;;-147.65;100.00;57646.63;10448404;28;20128;-79
2023/09/17 09:28:00;;;;;;;19.92;7.30;;;;;;;-147.65;100.00;57646.63;10427066;28;20462;-81
2023/09/17 09:33:00;;;;;;;13.55;8.32;;;;;;;-147.65;100.00;57646.63;10432181;28;20048;-79
2023/09/17 09:38:01;;;;;;;13.70;7.90;;;;;;;-147.65;100.00;57646.63;10426428;28;20440;-79
2023/09/17 09:43:02;;;;;;;9.13;5.25;;;;;;;-147.65;100.00;57646.63;10399097;28;20116;-80
2023/09/17 09:48:03;;;;;;;10.43;6.73;;;;;;;-147.65;100.00;57646.63;10411719;28;20044;-78
2023/09/17 09:53:03;;;;;;;9.43;5.97;;;;;;;-147.65;100.00;57646.63;10448105;28;20041;-79
2023/09/17 09:58:04;;;;;;;8.05;5.47;;;;;;;-147.65;100.00;57646.63;10421509;28;20124;-77
2023/09/17 10:03:05;;;;;;;10.07;6.63;;;;;;;-147.65;100.00;57646.63;10404272;28;20513;-78
2023/09/17 10:08:09;;;;;;;7.88;5.57;;;;;;;-147.65;100.00;57646.63;10422779;28;20041;-78
2023/09/17 10:13:10;;;;;;;16.98;6.95;;;;;;;-147.65;100.00;57646.63;10424546;28;20051;-80
2023/09/17 10:18:12;;;;;;;8.90;6.00;;;;;;;-147.65;100.00;57646.63;10456363;28;20041;-79
2023/09/17 10:23:12;;;;;;;6.93;5.30;;;;;;;-147.65;100.00;57646.63;10458279;28;20073;-78
2023/09/17 10:28:13;;;;;;;12.33;6.53;;;;;;;-147.65;100.00;57646.63;10437828;28;20038;-79
2023/09/17 10:33:14;;;;;;;11.57;6.60;;;;;;;-147.65;100.00;57646.63;10452480;28;20039;-79
2023/09/17 10:38:15;;;;;;;9.13;6.10;;;;;;;-147.65;100.00;57646.63;10457372;28;20538;-79
2023/09/17 10:43:15;;;;;;;12.47;5.87;;;;;;;-147.65;100.00;57646.63;10445675;28;20179;-79
2023/09/17 10:48:16;;;;;;;9.40;7.17;;;;;;;-147.65;100.00;57646.63;10430769;28;20497;-78
2023/09/17 10:53:17;;;;;;;9.27;4.80;;;;;;;-147.65;100.00;57646.63;10439328;28;20094;-79
2023/09/17 10:58:20;;;;;;;5.43;3.53;;;;;;;-147.65;100.00;57646.63;10445273;28;20048;-78
2023/09/17 11:03:22;;;;;;;2.95;2.17;;;;;;;-147.65;100.00;57646.63;10494093;28;20485;-79
2023/09/17 11:08:22;;;;;;;4.03;2.28;;;;;;;-147.65;100.00;57646.63;10477196;28;20071;-79
2023/09/17 11:13:23;;;;;;;4.43;2.87;;;;;;;-147.65;100.00;57646.63;10487085;28;20560;-78
2023/09/17 11:18:24;;;;;;;4.75;3.00;;;;;;;-147.65;100.00;57646.63;10485006;28;20089;-80
2023/09/17 11:23:51;;;;;;;5.63;2.63;;;;;;;-147.65;100.00;57646.63;10462653;28;20033;-79
2023/09/17 11:28:55;;;;;;;3.53;2.45;;;;;;;-147.65;100.00;57646.63;10392526;28;20263;-81
2023/09/17 11:33:57;;;;;;;5.60;2.33;;;;;;;-147.65;100.00;57646.63;10423683;28;20032;-79
2023/09/17 11:39:03;;;;;;;12.45;3.80;;;;;;;-147.65;100.00;57646.63;10411928;28;20541;-78
2023/09/17 11:44:04;;;;;;;2.75;1.90;;;;;;;-147.65;100.00;57646.63;10420569;28;20040;-79
2023/09/17 11:49:08;;;;;;;2.78;1.88;;;;;;;-147.65;100.00;57646.63;10390672;28;20045;-78
2023/09/17 11:54:11;;;;;;;4.60;2.63;;;;;;;-147.65;100.00;57646.63;10427057;28;20056;-79
2023/09/17 11:59:15;;;;;;;8.05;2.80;;;;;;;-147.65;100.00;57646.63;10383513;28;20037;-78
2023/09/17 12:04:16;;;;;;;7.95;3.50;;;;;;;-147.65;100.00;57646.63;10428112;28;20044;-78
2023/09/17 12:09:31;;;;;;;7.28;3.50;;;;;;;-147.65;100.00;57646.63;10385256;28;20064;-78
2023/09/17 12:14:32;;;;;;;4.05;2.83;;;;;;;-147.65;100.00;57646.63;10411142;28;20132;-78
2023/09/17 12:19:32;;;;;;;9.38;4.82;;;;;;;-147.65;100.00;57646.63;10405263;28;20040;-78
2023/09/17 12:24:39;;;;;;;5.87;3.60;;;;;;;-147.65;100.00;57646.63;10426289;28;20061;-78
2023/09/17 12:29:40;;;;;;;5.00;3.85;;;;;;;-147.65;100.00;57646.63;10402874;28;20045;-78
2023/09/17 12:34:41;;;;;;;8.15;4.38;;;;;;;-147.65;100.00;57646.63;10436400;28;20057;-78
2023/09/17 12:39:42;;;;;;;7.77;4.17;;;;;;;-147.65;100.00;57646.63;10401993;28;20127;-78
2023/09/17 12:44:43;;;;;;;7.80;4.90;;;;;;;-147.65;100.00;57646.63;10391212;28;20073;-78
2023/09/17 12:49:43;;;;;;;6.40;4.03;;;;;;;-147.65;100.00;57646.63;10426235;28;20468;-78
2023/09/17 12:54:44;;;;;;;5.53;3.77;;;;;;;-147.65;100.00;57646.63;10370445;28;20500;-78
2023/09/17 12:59:49;;;;;;;6.97;3.53;;;;;;;-147.65;100.00;57646.63;10440716;28;20182;-78
2023/09/17 13:04:49;;;;;;;8.00;4.00;;;;;;;-147.65;100.00;57646.63;10437626;28;20042;-78
2023/09/17 13:09:54;;;;;;;6.87;4.10;;;;;;;-147.65;100.00;57646.63;10412892;28;20474;-79
2023/09/17 13:14:55;;;;;;;8.18;4.70;;;;;;;-147.65;100.00;57646.63;10441242;28;20037;-81
2023/09/17 13:19:55;;;;;;;;;;;;;;;-147.65;100.00;57646.63;10418055;28;20041;-79
2023/09/17 13:24:56;;;;;;;9.53;3.77;;;;;;;-147.65;100.00;57646.63;10431622;28;19921;-80
2023/09/17 13:29:57;;;;;;;5.28;2.97;;;;;;;-147.65;100.00;57646.63;10408664;28;20033;-80
2023/09/17 13:34:57;;;;;;;8.77;4.63;;;;;;;-147.65;100.00;57646.63;10462907;28;20114;-79
2023/09/17 13:39:59;;;;;;;6.70;3.37;;;;;;;-147.65;100.00;57646.63;10423496;28;20037;-80
2023/09/17 13:44:59;;;;;;;6.40;3.67;;;;;;;-147.65;100.00;57646.63;10413656;28;20267;-80
2023/09/17 13:50:00;;;;;;;4.73;4.00;;;;;;;-147.65;100.00;57646.63;10441286;28;20045;-80
2023/09/17 13:55:00;;;;;;;5.70;4.03;;;;;;;-147.65;100.00;57646.63;10454135;28;20132;-79
2023/09/17 14:00:01;;;;;;;7.33;5.17;;;;;;;-147.65;100.00;57646.63;10440743;28;20039;-80
2023/09/17 14:05:02;;;;;;;4.00;3.30;;;;;;;-147.65;100.00;57646.63;10440885;28;20076;-79
2023/09/17 14:10:02;;;;;;;5.57;3.63;;;;;;;-147.65;100.00;57646.63;10442294;28;20045;-78
2023/09/17 14:15:03;;;;;;;7.30;4.63;;;;;;;-147.65;100.00;57646.63;10464702;28;20120;-78
2023/09/17 14:20:04;;;;;;;5.60;4.03;;;;;;;-147.65;100.00;57646.63;10448406;28;20472;-78
2023/09/17 14:25:05;;;;;;;6.60;4.30;;;;;;;-147.65;100.00;57646.63;10484308;28;20053;-79
2023/09/17 14:30:10;;;;;;;7.43;3.47;;;;;;;-147.65;100.00;57646.63;10455351;28;20744;-79
2023/09/17 14:35:11;;;;;;;7.45;3.33;;;;;;;-147.65;100.00;57646.63;10476068;28;20095;-78
2023/09/17 14:40:12;;;;;;;5.50;2.87;;;;;;;-147.65;100.00;57646.63;10432000;28;20102;-78
2023/09/17 14:45:12;;;;;;;3.90;3.00;;;;;;;-147.65;100.00;57646.63;10422277;28;20136;-78
2023/09/17 14:50:13;;;;;;;4.97;3.27;;;;;;;-147.65;100.00;57646.63;10423982;28;20242;-78
2023/09/17 14:55:14;;;;;;;3.70;2.70;;;;;;;-147.65;100.00;57646.63;10456876;28;20037;-78
2023/09/17 15:00:14;;;;;;;4.63;3.10;;;;;;;-147.65;100.00;57646.63;10432701;28;20357;-79
2023/09/17 15:05:15;;;;;;;6.03;3.40;;;;;;;-147.65;100.00;57646.63;10404616;28;20509;-78
2023/09/17 15:10:15;;;;;;;5.20;2.23;;;;;;;-147.65;100.00;57646.63;10389807;28;20111;-78
2023/09/17 15:15:16;;;;;;;4.30;2.20;;;;;;;-147.65;100.00;57646.63;10400822;28;20111;-78
2023/09/17 15:20:16;;;;;;;5.03;2.93;;;;;;;-147.65;100.00;57646.63;10435647;28;20057;-78
2023/09/17 15:25:17;;;;;;;5.63;4.10;;;;;;;-147.65;100.00;57646.63;10429990;28;20535;-78
2023/09/17 15:30:20;;;;;;;14.13;4.87;;;;;;;-147.65;100.00;57646.63;10450331;28;20135;-78
2023/09/17 15:35:22;;;;;;;7.53;4.15;;;;;;;-147.65;100.00;57646.63;10469549;28;20037;-79
2023/09/17 15:40:24;;;;;;;4.18;3.42;;;;;;;-147.65;100.00;57646.63;10455774;28;20488;-79
2023/09/17 15:45:25;;;;;;;8.43;4.10;;;;;;;-147.65;100.00;57646.63;10465769;28;20053;-77
2023/09/17 15:50:25;;;;;;;13.43;3.87;;;;;;;-147.65;100.00;57646.63;10427176;28;20060;-78
2023/09/17 15:55:26;;;;;;;7.37;4.50;;;;;;;-147.65;100.00;57646.63;10437501;28;20086;-77
2023/09/17 16:00:26;;;;;;;6.53;4.53;;;;;;;-147.65;100.00;57646.63;10439179;28;20041;-78
2023/09/17 16:05:27;;;;;;;6.33;3.90;;;;;;;-147.65;100.00;57646.63;10457462;28;20040;-76
2023/09/17 16:10:27;;;;;;;7.13;4.43;;;;;;;-147.65;100.00;57646.63;10459473;28;20040;-76
2023/09/17 16:15:28;;;;;;;6.13;4.53;;;;;;;-147.65;100.00;57646.63;10441908;28;20041;-78
2023/09/17 16:20:40;;;;;;;8.37;5.23;;;;;;;-147.65;100.00;57646.63;10455539;28;20109;-77
2023/09/17 16:25:40;;;;;;;5.35;4.07;;;;;;;-147.65;100.00;57646.63;10456769;28;20116;-76
2023/09/17 16:30:41;;;;;;;6.20;4.50;;;;;;;-147.65;100.00;57646.63;10449329;28;20038;-76
2023/09/17 16:35:41;;;;;;;7.47;4.60;;;;;;;-147.65;100.00;57646.63;10477999;28;20037;-78
2023/09/17 16:40:44;;;;;;;9.47;5.17;;;;;;;-147.65;100.00;57646.63;10403296;28;20041;-77
2023/09/17 16:45:45;;;;;;;11.65;5.05;;;;;;;-147.65;100.00;57646.63;10443406;28;20114;-77
2023/09/17 16:50:45;;;;;;;8.77;4.60;;;;;;;-147.65;100.00;57646.63;10449650;28;20125;-77
2023/09/17 16:55:46;;;;;;;7.77;5.30;;;;;;;-147.65;100.00;57646.63;10448795;28;20139;-77
2023/09/17 17:00:50;;;;;;;7.43;6.53;;;;;;;-147.65;100.00;57646.63;10448879;28;20078;-77
2023/09/17 17:05:50;;;;;;;8.90;6.43;;;;;;;-147.65;100.00;57646.63;10463773;28;20484;-77
2023/09/17 17:10:51;;;;;;;10.60;5.53;;;;;;;-147.65;100.00;57646.63;10449181;28;20044;-77
2023/09/17 17:15:51;;;;;;;13.97;6.90;;;;;;;-147.65;100.00;57646.63;10401984;28;20128;-78
2023/09/17 17:20:52;;;;;;;12.03;6.80;;;;;;;-147.65;100.00;57646.63;10434337;28;20037;-77
2023/09/17 17:25:52;;;;;;;7.67;3.70;;;;;;;-147.65;100.00;57646.63;10431757;28;20033;-76
2023/09/17 17:30:54;;;;;;;5.47;3.90;;;;;;;-147.65;100.00;57646.63;10418082;28;20032;-78
2023/09/17 17:35:54;;;;;;;7.50;4.78;;;;;;;-147.65;100.00;57646.63;10441308;28;20036;-77
2023/09/17 17:40:55;;;;;;;6.15;3.30;;;;;;;-147.65;100.00;57646.63;10428407;28;20468;-79
2023/09/17 17:45:56;;;;;;;6.83;4.13;;;;;;;-147.65;100.00;57646.63;10452763;28;20049;-77
2023/09/17 17:50:56;;;;;;;6.57;4.43;;;;;;;-147.65;100.00;57646.63;10464634;28;20381;-77
2023/09/17 17:55:57;;;;;;;7.40;3.75;;;;;;;-147.65;100.00;57646.63;10447179;28;20127;-77
2023/09/17 18:00:58;;;;;;;11.87;5.67;;;;;;;-147.65;100.00;57646.63;10461085;28;20032;-77
2023/09/17 18:05:58;;;;;;;7.47;5.55;;;;;;;-147.65;100.00;57646.63;10451917;28;20404;-77
2023/09/17 18:11:00;;;;;;;10.35;7.53;;;;;;;-147.65;100.00;57646.63;10454596;28;20064;-76
2023/09/17 18:16:01;;;;;;;19.55;13.25;;;;;;;-147.65;100.00;57646.63;10460662;28;20512;-77
2023/09/17 18:21:02;;;;;;;15.70;13.95;;;;;;;-147.65;100.00;57646.63;10450919;28;20127;-77
2023/09/17 18:26:02;;;;;;;17.90;14.10;;;;;;;-147.65;100.00;57646.63;10462572;28;20481;-76
2023/09/17 18:31:03;;;;;;;17.48;14.52;;;;;;;-147.65;100.00;57646.63;10460518;28;20132;-77
2023/09/17 18:36:04;;;;;;;26.70;16.77;;;;;;;-147.65;100.00;57646.63;10452097;28;20075;-77
2023/09/17 18:41:04;;;;;;;26.67;16.75;;;;;;;-147.65;100.00;57646.63;10448376;28;20435;-79
2023/09/17 18:46:07;;;;;;;21.05;18.30;;;;;;;-147.65;100.00;57646.63;10452773;28;20048;-77
2023/09/17 18:51:07;;;;;;;21.40;16.88;;;;;;;-147.65;100.00;57646.63;10431444;28;20041;-76
2023/09/17 18:56:08;;;;;;;19.38;11.93;;;;;;;-147.65;100.00;57646.63;10432026;28;20064;-77
2023/09/17 19:01:09;;;;;;;19.02;14.98;;;;;;;-147.65;100.00;57646.63;10439473;28;20041;-78
2023/09/17 19:06:09;;;;;;;23.73;15.90;;;;;;;-147.65;100.00;57646.63;10420638;28;20075;-76
2023/09/17 19:11:10;;;;;;;20.30;16.13;;;;;;;-147.65;100.00;57646.63;10445635;28;20053;-77
2023/09/17 19:16:10;;;;;;;20.10;15.38;;;;;;;-147.65;100.00;57646.63;10434642;28;20581;-77
2023/09/17 19:21:12;;;;;;;20.63;16.70;;;;;;;-147.65;100.00;57646.63;10428480;28;20044;-78
2023/09/17 19:26:14;;;;;;;218.27;40.70;;;;;;;-147.65;100.00;57646.63;10445385;28;20041;-77
2023/09/17 19:31:14;;;;;;;210.85;29.90;;;;;;;-147.65;100.00;57646.63;10440391;28;20041;-77
2023/09/17 19:36:15;;;;;;;21.02;14.27;;;;;;;-147.65;100.00;57646.63;10433490;28;20033;-77
2023/09/17 19:41:15;;;;;;;18.58;16.63;;;;;;;-147.65;100.00;57646.63;10478067;28;20493;-78
2023/09/17 19:46:16;;;;;;;84.63;24.00;;;;;;;-147.65;100.00;57646.63;10437811;28;20093;-77
2023/09/17 19:51:16;;;;;;;44.97;18.92;;;;;;;-147.65;100.00;57646.63;10442785;28;20051;-78
2023/09/17 19:56:19;;;;;;;22.20;17.60;;;;;;;-147.65;100.00;57646.63;10445384;28;20128;-77
2023/09/17 20:01:19;;;;;;;34.40;21.25;;;;;;;-147.65;100.00;57646.63;10478410;28;20124;-77
2023/09/17 20:06:20;;;;;;;31.52;20.42;;;;;;;-147.65;100.00;57646.63;10436246;28;20045;-78
2023/09/17 20:11:20;;;;;;;22.83;18.30;;;;;;;-147.65;100.00;57646.63;10477025;28;20033;-78
2023/09/17 20:16:21;;;;;;;31.20;18.40;;;;;;;-147.65;100.00;57646.63;10426253;28;20171;-79
2023/09/17 20:21:21;;;;;;;21.05;16.77;;;;;;;-147.65;100.00;57646.63;10433948;28;20059;-78
2023/09/17 20:26:22;;;;;;;21.27;16.35;;;;;;;-147.65;100.00;57646.63;10414706;28;20046;-79
2023/09/17 20:31:23;;;;;;;21.98;16.10;;;;;;;-147.65;100.00;57646.63;10403170;28;20046;-80
2023/09/17 20:36:24;;;;;;;23.70;16.00;;;;;;;-147.65;100.00;57646.63;10398629;28;20419;-78
2023/09/17 20:41:26;;;;;;;22.23;17.73;;;;;;;-147.65;100.00;57646.63;10401140;28;20045;-79
2023/09/17 20:46:27;;;;;;;23.73;17.30;;;;;;;-147.65;100.00;57646.63;10417489;28;20268;-79
2023/09/17 20:51:27;;;;;;;30.58;18.63;;;;;;;-147.65;100.00;57646.63;10434060;28;20509;-78
2023/09/17 20:56:28;;;;;;;129.43;30.08;;;;;;;-147.65;100.00;57646.63;10402292;28;20049;-81
2023/09/17 21:01:28;;;;;;;25.10;18.63;;;;;;;-147.65;100.00;57646.63;10449010;28;20071;-78
2023/09/17 21:06:29;;;;;;;24.08;17.95;;;;;;;-147.65;100.00;57646.63;10431506;28;20111;-78
2023/09/17 21:11:29;;;;;;;22.17;16.70;;;;;;;-147.65;100.00;57646.63;10472525;28;20128;-77
2023/09/17 21:16:30;;;;;;;26.35;19.17;;;;;;;-147.65;100.00;57646.63;10479098;28;20032;-78
2023/09/17 21:21:30;;;;;;;25.73;16.85;;;;;;;-147.65;100.00;57646.63;10487406;28;20132;-79
2023/09/17 21:26:32;;;;;;;29.73;20.88;;;;;;;-147.65;100.00;57646.63;10458946;28;20043;-78
2023/09/17 21:31:33;;;;;;;24.27;19.50;;;;;;;-147.65;100.00;57646.63;10444918;28;20489;-78
2023/09/17 21:36:33;;;;;;;28.40;21.17;;;;;;;-147.65;100.00;57646.63;10457137;28;20468;-78
2023/09/17 21:41:34;;;;;;;26.90;19.52;;;;;;;-147.65;100.00;57646.63;10463063;28;20131;-78
2023/09/17 21:46:35;;;;;;;28.38;19.20;;;;;;;-147.65;100.00;57646.63;10493735;28;20033;-78
2023/09/17 21:51:35;;;;;;;26.98;19.05;;;;;;;-147.65;100.00;57646.63;10440591;28;20114;-78
2023/09/17 21:56:36;;;;;;;24.58;17.38;;;;;;;-147.65;100.00;57646.63;10474510;28;20077;-79
2023/09/17 22:01:36;;;;;;;29.58;20.92;;;;;;;-147.65;100.00;57646.63;10463669;28;20039;-78
2023/09/17 22:06:37;;;;;;;27.42;20.50;;;;;;;-147.65;100.00;57646.63;10441521;28;20033;-78
2023/09/17 22:11:37;;;;;;;29.02;20.50;;;;;;;-147.65;100.00;57646.63;10472184;28;20041;-79